Time;durP1;ratioP1;P1;durP2;ratioP2;P2;SDS_P1;SDS_P2;PMS_P1;PMS_P2;Temp;Humidity;BMP_temperature;BMP_pressure;BME280_temperature;BME280_humidity;BME280_pressure;Samples;Min_cycle;Max_cycle;Signal;HPM_P1;HPM_P2
2022/12/19 04:02:49;;;;;;;;;;;3.90;99.90;;;;;;5036353;23;19935;-68
2022/12/19 04:05:18;;;;;;;;;;;4.00;99.90;;;;;;4921597;29;19927;-68
2022/12/19 04:07:45;;;;;;;;;;;4.00;99.90;;;;;;4919639;29;19927;-69
2022/12/19 04:10:14;;;;;;;;;;;4.00;99.90;;;;;;4925082;29;19927;-69
2022/12/19 04:12:44;;;;;;;;;;;4.10;99.90;;;;;;4911972;29;20007;-69
2022/12/19 04:15:11;;;;;;;;;;;4.20;99.90;;;;;;4908511;29;20022;-68
2022/12/19 04:17:40;;;;;;;;;;;4.40;99.90;;;;;;4909190;29;19987;-69
2022/12/19 04:20:10;;;;;;;;;;;4.50;99.90;;;;;;4925292;29;20469;-68
2022/12/19 04:22:39;;;;;;;;;;;4.50;99.90;;;;;;4924276;29;19927;-69
2022/12/19 04:25:07;;;;;;;;;;;4.60;99.90;;;;;;4919761;29;19963;-68
2022/12/19 04:27:35;;;;;;;;;;;4.50;99.90;;;;;;4903483;29;19931;-68
2022/12/19 04:30:03;;;;;;;;;;;4.70;99.90;;;;;;4922591;29;19927;-69
2022/12/19 04:32:32;;;;;;;;;;;4.90;99.90;;;;;;4901226;29;19931;-69
2022/12/19 04:34:59;;;;;;;;;;;5.10;99.90;;;;;;4921427;29;19946;-68
2022/12/19 04:37:28;;;;;;;;;;;5.40;99.90;;;;;;4924259;29;19934;-69
2022/12/19 04:39:54;;;;;;;;;;;5.50;99.90;;;;;;4905927;29;19931;-68
2022/12/19 04:42:21;;;;;;;;;;;5.70;99.90;;;;;;4929798;29;19927;-69
2022/12/19 04:44:48;;;;;;;;;;;5.90;99.90;;;;;;4923236;29;19935;-69
2022/12/19 04:47:15;;;;;;;;;;;5.90;99.90;;;;;;4910240;29;19935;-70
2022/12/19 04:49:42;;;;;;;;;;;5.90;99.90;;;;;;4929282;29;19957;-70
2022/12/19 04:52:08;;;;;;;;;;;6.00;99.90;;;;;;4910444;29;19927;-68
2022/12/19 04:54:37;;;;;;;;;;;6.00;99.90;;;;;;4921582;29;19935;-69
2022/12/19 04:57:03;;;;;;;;;;;6.10;99.90;;;;;;4926220;29;19927;-70
2022/12/19 04:59:30;;;;;;;;;;;6.20;99.90;;;;;;4923849;29;19934;-68
2022/12/19 05:01:57;;;;;;;;;;;6.30;99.90;;;;;;4910623;29;19983;-69
2022/12/19 05:04:24;;;;;;;;;;;6.40;99.90;;;;;;4911061;29;19927;-69
2022/12/19 05:06:51;;;;;;;;;;;6.50;99.90;;;;;;4930092;29;19970;-68
2022/12/19 05:09:17;;;;;;;;;;;6.70;99.90;;;;;;4929205;29;19927;-68
2022/12/19 05:11:46;;;;;;;;;;;6.80;99.90;;;;;;4928207;29;19928;-68
2022/12/19 05:14:14;;;;;;;;;;;6.90;99.90;;;;;;4926025;29;19982;-68
2022/12/19 05:16:41;;;;;;;;;;;7.00;99.90;;;;;;4931741;29;19962;-75
2022/12/19 05:19:10;;;;;;;;;;;7.20;99.90;;;;;;4918433;29;20339;-73
2022/12/19 05:21:37;;;;;;;;;;;7.30;99.90;;;;;;4874727;29;19936;-72
2022/12/19 05:24:04;;;;;;;;;;;7.40;99.90;;;;;;4928151;29;19935;-70
2022/12/19 05:26:31;;;;;;;;;;;7.40;99.90;;;;;;4924748;29;19936;-69
2022/12/19 05:28:59;;;;;;;;;;;7.60;99.90;;;;;;4916293;29;19927;-69
2022/12/19 05:31:26;;;;;;;;;;;7.60;99.90;;;;;;4922186;29;19960;-67
2022/12/19 05:33:53;;;;;;;;;;;7.70;99.90;;;;;;4926974;29;19927;-69
2022/12/19 05:36:20;;;;;;;;;;;7.70;99.90;;;;;;4927110;29;19934;-69
2022/12/19 05:38:47;;;;;;;;;;;7.60;99.90;;;;;;4929586;29;19927;-69
2022/12/19 05:41:14;;;;;;;;;;;7.60;99.90;;;;;;4915259;29;20493;-69
2022/12/19 05:43:41;;;;;;;;;;;7.60;99.90;;;;;;4916574;29;19934;-68
2022/12/19 05:46:09;;;;;;;;;;;7.60;99.90;;;;;;4916895;29;19930;-69
2022/12/19 05:48:37;;;;;;;;;;;7.60;99.90;;;;;;4915069;29;19931;-68
2022/12/19 05:51:04;;;;;;;;;;;7.70;99.90;;;;;;4916003;29;19930;-68
2022/12/19 05:53:31;;;;;;;;;;;7.70;99.90;;;;;;4912848;29;19931;-68
2022/12/19 05:56:04;;;;;;;;;;;7.70;99.90;;;;;;4928215;29;19970;-68
2022/12/19 05:58:32;;;;;;;;;;;7.70;99.90;;;;;;4927611;29;19927;-67
2022/12/19 06:01:02;;;;;;;;;;;7.70;99.90;;;;;;4927440;29;19949;-68
2022/12/19 06:03:30;;;;;;;;;;;7.70;99.90;;;;;;4904901;29;19927;-68
2022/12/19 06:05:57;;;;;;;;;;;7.80;99.90;;;;;;4913352;29;19928;-69
2022/12/19 06:08:23;;;;;;;;;;;8.00;99.90;;;;;;4924673;29;19928;-68
2022/12/19 06:10:50;;;;;;;;;;;8.10;99.90;;;;;;4928200;29;19935;-68
2022/12/19 06:13:17;;;;;;;;;;;8.20;99.90;;;;;;4914084;29;19927;-68
2022/12/19 06:15:44;;;;;;;;;;;8.20;99.90;;;;;;4930991;29;19934;-68
2022/12/19 06:18:11;;;;;;;;;;;8.30;99.90;;;;;;4930662;29;19934;-69
2022/12/19 06:20:39;;;;;;;;;;;8.30;99.90;;;;;;4924549;29;19927;-67
2022/12/19 06:23:06;;;;;;;;;;;8.30;99.90;;;;;;4928707;29;19982;-69
2022/12/19 06:25:33;;;;;;;;;;;8.30;99.90;;;;;;4926519;29;19955;-69
2022/12/19 06:27:59;;;;;;;;;;;8.40;99.90;;;;;;4912921;29;19927;-68
2022/12/19 06:30:27;;;;;;;;;;;8.40;99.90;;;;;;4928092;29;19931;-69
2022/12/19 06:32:53;;;;;;;;;;;8.40;99.90;;;;;;4921749;29;19927;-70
2022/12/19 06:35:20;;;;;;;;;;;8.40;99.90;;;;;;4916430;29;19927;-66
2022/12/19 06:37:49;;;;;;;;;;;8.50;99.90;;;;;;4920223;29;19935;-68
2022/12/19 06:42:21;;;;;;;;;;;8.50;99.90;;;;;;4927769;29;19950;-68
2022/12/19 06:43:02;;;;;;;;;;;8.50;99.90;;;;;;4918152;29;20417;-69
2022/12/19 06:45:30;;;;;;;;;;;8.50;99.90;;;;;;4925322;29;19923;-69
2022/12/19 06:47:57;;;;;;;;;;;8.50;99.90;;;;;;4928644;29;19933;-69
2022/12/19 06:50:24;;;;;;;;;;;8.40;99.90;;;;;;4928197;29;20339;-69
2022/12/19 06:52:52;;;;;;;;;;;8.40;99.90;;;;;;4912661;29;19994;-69
2022/12/19 06:55:19;;;;;;;;;;;8.40;99.90;;;;;;4912759;29;19928;-69
2022/12/19 06:57:46;;;;;;;;;;;8.30;99.90;;;;;;4912815;29;19927;-69
2022/12/19 07:00:13;;;;;;;;;;;8.30;99.90;;;;;;4911747;29;19927;-68
2022/12/19 07:02:42;;;;;;;;;;;8.40;99.90;;;;;;4908792;29;19936;-69
2022/12/19 07:05:09;;;;;;;;;;;8.30;99.90;;;;;;4926212;29;19979;-75
2022/12/19 07:07:36;;;;;;;;;;;8.20;99.90;;;;;;4931700;29;19928;-71
2022/12/19 07:10:06;;;;;;;;;;;8.20;99.90;;;;;;4931134;29;19928;-71
2022/12/19 07:12:34;;;;;;;;;;;8.20;99.90;;;;;;4909633;29;19927;-67
2022/12/19 07:15:01;;;;;;;;;;;8.30;99.90;;;;;;4929515;29;19927;-68
2022/12/19 07:17:28;;;;;;;;;;;8.40;99.90;;;;;;4903762;29;19927;-69
2022/12/19 07:19:56;;;;;;;;;;;8.40;99.90;;;;;;4921668;29;19927;-67
2022/12/19 07:22:23;;;;;;;;;;;8.40;99.90;;;;;;4931516;29;19927;-67
2022/12/19 07:24:50;;;;;;;;;;;8.40;99.90;;;;;;4909023;29;19939;-70
2022/12/19 07:27:18;;;;;;;;;;;8.40;99.90;;;;;;4926464;29;19927;-71
2022/12/19 07:29:45;;;;;;;;;;;8.50;99.90;;;;;;4926824;29;19975;-69
2022/12/19 07:32:12;;;;;;;;;;;8.50;99.90;;;;;;4911352;29;19935;-70
2022/12/19 07:34:39;;;;;;;;;;;8.60;99.90;;;;;;4911303;29;19927;-70
2022/12/19 07:37:06;;;;;;;;;;;8.60;99.90;;;;;;4931032;29;20406;-70
2022/12/19 07:39:33;;;;;;;;;;;8.50;99.90;;;;;;4905983;29;19983;-67
2022/12/19 07:42:00;;;;;;;;;;;8.50;99.90;;;;;;4931547;29;20313;-67
2022/12/19 07:44:35;;;;;;;;;;;8.40;99.90;;;;;;4914827;29;19942;-67
2022/12/19 07:47:02;;;;;;;;;;;8.50;99.90;;;;;;4925051;29;19938;-69
2022/12/19 07:49:29;;;;;;;;;;;8.50;99.90;;;;;;4930072;29;19934;-68
2022/12/19 07:51:56;;;;;;;;;;;8.50;99.90;;;;;;4910771;29;19931;-71
2022/12/19 07:54:22;;;;;;;;;;;8.50;99.90;;;;;;4913460;29;19931;-73
2022/12/19 07:56:49;;;;;;;;;;;8.50;99.90;;;;;;4914363;29;19927;-68
2022/12/19 07:59:16;;;;;;;;;;;8.50;99.90;;;;;;4911812;29;19961;-70
2022/12/19 08:01:44;;;;;;;;;;;8.50;99.90;;;;;;4927731;29;20270;-70
2022/12/19 08:04:11;;;;;;;;;;;8.50;99.90;;;;;;4930826;29;19927;-68
2022/12/19 08:06:38;;;;;;;;;;;8.40;99.90;;;;;;4931101;29;19931;-68
2022/12/19 08:09:05;;;;;;;;;;;8.40;99.90;;;;;;4930192;29;19927;-68
2022/12/19 08:11:32;;;;;;;;;;;8.40;99.90;;;;;;4930504;29;19942;-69
2022/12/19 08:13:59;;;;;;;;;;;8.30;99.90;;;;;;4930910;29;19983;-69
2022/12/19 08:16:27;;;;;;;;;;;8.40;99.90;;;;;;4927781;29;20026;-68
2022/12/19 08:18:55;;;;;;;;;;;8.40;99.90;;;;;;4926634;29;19950;-69
2022/12/19 08:21:22;;;;;;;;;;;8.40;99.90;;;;;;4930812;29;20034;-69
2022/12/19 08:23:49;;;;;;;;;;;8.40;99.90;;;;;;4930741;29;19935;-69
2022/12/19 08:26:23;;;;;;;;;;;8.40;99.90;;;;;;4926987;29;20458;-69
2022/12/19 08:28:51;;;;;;;;;;;8.40;99.90;;;;;;4930087;29;19934;-66
2022/12/19 08:31:18;;;;;;;;;;;8.40;99.90;;;;;;4914508;29;19927;-68
2022/12/19 08:33:46;;;;;;;;;;;8.50;99.90;;;;;;4929994;29;19927;-69
2022/12/19 08:36:15;;;;;;;;;;;8.50;99.90;;;;;;4930545;29;19953;-69
2022/12/19 08:38:42;;;;;;;;;;;8.50;99.90;;;;;;4929575;29;19931;-69
2022/12/19 08:41:09;;;;;;;;;;;8.50;99.90;;;;;;4930067;29;19927;-69
2022/12/19 08:43:36;;;;;;;;;;;8.60;99.90;;;;;;4922950;29;20361;-69
2022/12/19 08:46:02;;;;;;;;;;;8.70;99.90;;;;;;4914293;29;19942;-69
2022/12/19 08:48:30;;;;;;;;;;;8.70;99.90;;;;;;4913856;29;19927;-69
2022/12/19 08:50:58;;;;;;;;;;;8.70;99.90;;;;;;4929899;29;19931;-68
2022/12/19 08:53:27;;;;;;;;;;;8.80;99.90;;;;;;4914372;29;19995;-68
2022/12/19 08:55:55;;;;;;;;;;;8.90;99.90;;;;;;4925111;29;20309;-68
2022/12/19 08:58:22;;;;;;;;;;;8.80;99.90;;;;;;4913397;29;20374;-68
2022/12/19 09:00:48;;;;;;;;;;;8.90;99.90;;;;;;4929488;29;20018;-68
2022/12/19 09:03:15;;;;;;;;;;;8.90;99.90;;;;;;4930431;29;19935;-68
2022/12/19 09:05:42;;;;;;;;;;;9.00;99.90;;;;;;4926927;29;19938;-69
2022/12/19 09:08:09;;;;;;;;;;;9.10;99.90;;;;;;4910450;29;19928;-68
2022/12/19 09:10:37;;;;;;;;;;;9.20;99.90;;;;;;4927749;29;19927;-68
2022/12/19 09:13:04;;;;;;;;;;;9.30;99.90;;;;;;4922578;29;19950;-71
2022/12/19 09:15:31;;;;;;;;;;;9.30;99.90;;;;;;4929011;29;19933;-70
2022/12/19 09:17:59;;;;;;;;;;;9.30;99.90;;;;;;4911576;29;19983;-70
2022/12/19 09:20:25;;;;;;;;;;;9.30;99.90;;;;;;4915510;29;19927;-72
2022/12/19 09:22:52;;;;;;;;;;;9.50;99.90;;;;;;4931646;29;19979;-68
2022/12/19 09:25:19;;;;;;;;;;;9.50;99.90;;;;;;4929069;29;19939;-68
2022/12/19 09:27:48;;;;;;;;;;;9.60;99.90;;;;;;4923639;29;19931;-69
2022/12/19 09:30:15;;;;;;;;;;;9.70;99.90;;;;;;4920457;29;19935;-68
2022/12/19 09:32:42;;;;;;;;;;;9.70;99.90;;;;;;4903048;29;20347;-70
2022/12/19 09:35:08;;;;;;;;;;;9.70;99.90;;;;;;4926371;29;19952;-69
2022/12/19 09:37:35;;;;;;;;;;;9.70;99.90;;;;;;4926557;29;19928;-71
2022/12/19 09:40:02;;;;;;;;;;;9.70;99.90;;;;;;4918883;29;19935;-70
2022/12/19 09:42:50;;;;;;;;;;;9.80;99.90;;;;;;4928590;29;19997;-67
2022/12/19 09:45:36;;;;;;;;;;;9.80;99.90;;;;;;4909568;29;19927;-73
2022/12/19 09:48:04;;;;;;;;;;;9.80;99.90;;;;;;4926282;29;19931;-66
2022/12/19 09:50:44;;;;;;;;;;;9.80;99.90;;;;;;4923439;29;19927;-69
2022/12/19 09:53:15;;;;;;;;;;;9.80;99.90;;;;;;4929160;29;19987;-69
2022/12/19 09:55:42;;;;;;;;;;;9.80;99.90;;;;;;4928915;29;19931;-69
2022/12/19 09:58:11;;;;;;;;;;;9.80;99.90;;;;;;4913394;29;20465;-70
2022/12/19 10:00:40;;;;;;;;;;;9.90;99.90;;;;;;4911105;29;20453;-69
2022/12/19 10:03:14;;;;;;;;;;;9.90;99.90;;;;;;4925009;29;19931;-69
2022/12/19 10:05:43;;;;;;;;;;;9.90;99.90;;;;;;4926040;29;19931;-69
2022/12/19 10:08:15;;;;;;;;;;;9.90;99.90;;;;;;4909337;29;20406;-69
2022/12/19 10:10:47;;;;;;;;;;;10.10;99.90;;;;;;4909839;29;19927;-69
2022/12/19 10:13:21;;;;;;;;;;;10.10;99.90;;;;;;4923881;29;19927;-69
2022/12/19 10:15:52;;;;;;;;;;;10.20;99.90;;;;;;4923506;29;19935;-69
2022/12/19 10:18:27;;;;;;;;;;;10.20;99.90;;;;;;4904525;29;19927;-66
2022/12/19 10:20:56;;;;;;;;;;;10.20;99.90;;;;;;4923447;29;20007;-69
2022/12/19 10:23:39;;;;;;;;;;;10.30;99.90;;;;;;4924471;29;19938;-68
2022/12/19 10:26:10;;;;;;;;;;;10.40;99.90;;;;;;4926041;29;19931;-69
2022/12/19 10:28:42;;;;;;;;;;;10.40;99.90;;;;;;4928182;29;19953;-68
2022/12/19 10:31:14;;;;;;;;;;;10.40;99.90;;;;;;4909042;29;19927;-69
2022/12/19 10:33:45;;;;;;;;;;;10.40;99.90;;;;;;4914396;29;19931;-69
2022/12/19 10:36:11;;;;;;;;;;;10.50;99.90;;;;;;4914363;29;19927;-69
2022/12/19 10:38:42;;;;;;;;;;;10.50;99.90;;;;;;4931052;29;19931;-68
2022/12/19 10:41:14;;;;;;;;;;;10.50;99.90;;;;;;4916383;29;19927;-68
2022/12/19 10:43:45;;;;;;;;;;;10.60;99.90;;;;;;4925211;29;19935;-69
2022/12/19 10:46:15;;;;;;;;;;;10.60;99.90;;;;;;4905840;29;19927;-68
2022/12/19 10:48:43;;;;;;;;;;;10.70;99.90;;;;;;4928594;29;20283;-69
2022/12/19 10:51:12;;;;;;;;;;;10.70;99.90;;;;;;4926293;29;20354;-69
2022/12/19 10:53:39;;;;;;;;;;;10.70;99.90;;;;;;4931112;29;19951;-67
2022/12/19 10:56:12;;;;;;;;;;;10.70;99.90;;;;;;4918212;29;19934;-68
2022/12/19 10:58:42;;;;;;;;;;;10.80;99.90;;;;;;4916906;29;19983;-69
2022/12/19 11:01:11;;;;;;;;;;;10.90;99.90;;;;;;4911160;29;20446;-69
2022/12/19 11:03:40;;;;;;;;;;;11.00;99.90;;;;;;4914516;29;20303;-69
2022/12/19 11:06:28;;;;;;;;;;;11.10;99.90;;;;;;4923516;29;19927;-69
2022/12/19 11:09:12;;;;;;;;;;;11.30;99.90;;;;;;4911421;29;20030;-68
2022/12/19 11:11:39;;;;;;;;;;;11.30;99.90;;;;;;4927612;29;20342;-69
2022/12/19 11:14:19;;;;;;;;;;;11.40;99.90;;;;;;4917266;29;19931;-69
2022/12/19 11:16:45;;;;;;;;;;;11.40;99.90;;;;;;4912032;29;19927;-68
2022/12/19 11:19:19;;;;;;;;;;;11.30;99.90;;;;;;4931865;29;19934;-68
2022/12/19 11:21:47;;;;;;;;;;;11.40;99.90;;;;;;4927790;29;19974;-69
2022/12/19 11:24:18;;;;;;;;;;;11.40;99.90;;;;;;4932426;29;19946;-69
2022/12/19 11:26:46;;;;;;;;;;;11.40;99.90;;;;;;4917366;29;19931;-68
2022/12/19 11:29:17;;;;;;;;;;;11.40;99.90;;;;;;4906591;29;19987;-69
2022/12/19 11:31:45;;;;;;;;;;;11.40;99.90;;;;;;4931555;29;19937;-69
2022/12/19 11:34:14;;;;;;;;;;;11.40;99.90;;;;;;4916648;29;19927;-69
2022/12/19 11:36:44;;;;;;;;;;;11.40;99.90;;;;;;4916961;29;19996;-69
2022/12/19 11:39:16;;;;;;;;;;;11.50;99.90;;;;;;4931078;29;19939;-69
2022/12/19 11:41:46;;;;;;;;;;;11.50;99.90;;;;;;4932665;29;20003;-69
2022/12/19 11:44:17;;;;;;;;;;;11.60;99.90;;;;;;4916498;29;20398;-69
2022/12/19 11:46:46;;;;;;;;;;;11.60;99.90;;;;;;4907890;29;19949;-69
2022/12/19 11:49:19;;;;;;;;;;;11.60;99.90;;;;;;4923406;29;19934;-68
2022/12/19 11:51:50;;;;;;;;;;;11.60;99.90;;;;;;4927659;29;20334;-69
2022/12/19 11:54:20;;;;;;;;;;;11.70;99.90;;;;;;4913832;29;20283;-69
2022/12/19 11:56:47;;;;;;;;;;;11.70;99.90;;;;;;4928113;29;19983;-69
2022/12/19 11:59:17;;;;;;;;;;;11.80;99.90;;;;;;4931453;29;19931;-69
2022/12/19 12:01:51;;;;;;;;;;;11.80;99.90;;;;;;4928715;29;19986;-69
2022/12/19 12:04:32;;;;;;;;;;;11.70;99.90;;;;;;4933022;29;19927;-69
2022/12/19 12:06:59;;;;;;;;;;;11.80;99.90;;;;;;4923101;29;19932;-69
2022/12/19 12:09:32;;;;;;;;;;;12.10;99.90;;;;;;4916760;29;19927;-69
2022/12/19 12:12:02;;;;;;;;;;;12.50;99.90;;;;;;4928729;29;19934;-69
2022/12/19 12:14:32;;;;;;;;;;;12.60;99.90;;;;;;4933518;29;19962;-69
2022/12/19 12:17:05;;;;;;;;;;;12.50;99.90;;;;;;4924480;29;19927;-69
2022/12/19 12:19:40;;;;;;;;;;;12.50;99.90;;;;;;4924366;29;19942;-69
2022/12/19 12:22:13;;;;;;;;;;;12.50;99.90;;;;;;4931510;29;20341;-69
2022/12/19 12:24:47;;;;;;;;;;;12.50;99.90;;;;;;4930920;29;20362;-69
2022/12/19 12:27:21;;;;;;;;;;;12.80;99.90;;;;;;4912690;29;19931;-69
2022/12/19 12:29:50;;;;;;;;;;;13.30;99.90;;;;;;4926209;29;19927;-67
2022/12/19 12:32:22;;;;;;;;;;;13.90;99.90;;;;;;4908015;29;20401;-69
2022/12/19 12:34:59;;;;;;;;;;;14.20;99.90;;;;;;4930400;29;19931;-69
2022/12/19 12:37:37;;;;;;;;;;;14.00;99.90;;;;;;4929056;29;20454;-70
2022/12/19 12:40:20;;;;;;;;;;;14.20;99.90;;;;;;4926452;29;19934;-69
2022/12/19 12:42:52;;;;;;;;;;;14.10;99.90;;;;;;4929800;29;19957;-69
2022/12/19 12:45:21;;;;;;;;;;;14.30;99.90;;;;;;4913441;29;19938;-70
2022/12/19 12:47:49;;;;;;;;;;;14.40;99.90;;;;;;4928752;29;19935;-70
2022/12/19 12:50:17;;;;;;;;;;;14.20;99.90;;;;;;4931184;29;19934;-69
2022/12/19 12:52:46;;;;;;;;;;;14.00;99.90;;;;;;4931200;29;20379;-70
2022/12/19 12:55:15;;;;;;;;;;;14.10;99.90;;;;;;4914657;29;19978;-70
2022/12/19 12:57:43;;;;;;;;;;;14.00;99.90;;;;;;4922687;29;19927;-69
2022/12/19 13:00:15;;;;;;;;;;;14.00;99.90;;;;;;4928764;29;19927;-69
2022/12/19 13:02:42;;;;;;;;;;;14.30;99.90;;;;;;4924716;29;19934;-68
2022/12/19 13:05:18;;;;;;;;;;;14.40;99.90;;;;;;4930032;29;19951;-69
2022/12/19 13:07:50;;;;;;;;;;;14.70;99.90;;;;;;4914240;29;19931;-70
2022/12/19 13:10:21;;;;;;;;;;;14.50;99.90;;;;;;4928608;29;21051;-69
2022/12/19 13:13:00;;;;;;;;;;;14.60;99.90;;;;;;4914104;29;19934;-69
2022/12/19 13:15:37;;;;;;;;;;;14.50;99.90;;;;;;4929963;29;19950;-69
2022/12/19 13:18:36;;;;;;;;;;;14.20;99.90;;;;;;4910569;29;19932;-69
2022/12/19 13:21:04;;;;;;;;;;;14.00;99.90;;;;;;4909889;29;19927;-69
2022/12/19 13:23:45;;;;;;;;;;;13.60;99.90;;;;;;4913814;29;19983;-69
2022/12/19 13:26:31;;;;;;;;;;;13.60;99.90;;;;;;4930092;29;19927;-68
2022/12/19 13:29:19;;;;;;;;;;;13.90;99.90;;;;;;4920759;29;19927;-69
2022/12/19 13:32:06;;;;;;;;;;;13.70;99.90;;;;;;4929932;29;19927;-69
2022/12/19 13:34:35;;;;;;;;;;;13.40;99.90;;;;;;4911437;29;20358;-69
2022/12/19 13:37:24;;;;;;;;;;;13.30;99.90;;;;;;4929474;29;19927;-69
2022/12/19 13:40:00;;;;;;;;;;;13.20;99.90;;;;;;4909327;29;20291;-69
2022/12/19 13:45:15;;;;;;;;;;;13.10;99.90;;;;;;4913626;29;19923;-69
2022/12/19 13:47:43;;;;;;;;;;;13.10;99.90;;;;;;4909770;29;19928;-69
2022/12/19 13:50:16;;;;;;;;;;;13.20;99.90;;;;;;4912837;29;19927;-69
2022/12/19 13:52:47;;;;;;;;;;;13.20;99.90;;;;;;4927276;29;19927;-69
2022/12/19 13:55:14;;;;;;;;;;;13.10;99.90;;;;;;4929307;29;19934;-69
2022/12/19 13:57:41;;;;;;;;;;;12.90;99.90;;;;;;4926097;29;19931;-69
2022/12/19 14:00:09;;;;;;;;;;;12.90;99.90;;;;;;4912475;29;19935;-69
2022/12/19 14:02:38;;;;;;;;;;;12.80;99.90;;;;;;4910860;29;20314;-69
2022/12/19 14:05:05;;;;;;;;;;;12.60;99.90;;;;;;4913404;29;19935;-69
2022/12/19 14:07:35;;;;;;;;;;;12.40;99.90;;;;;;4925791;29;20295;-68
2022/12/19 14:10:04;;;;;;;;;;;12.30;99.90;;;;;;4924004;29;19935;-69
2022/12/19 14:15:21;;;;;;;;;;;12.10;99.90;;;;;;4928251;29;19966;-69
2022/12/19 14:17:50;;;;;;;;;;;12.00;99.90;;;;;;4930754;29;19927;-70
2022/12/19 14:20:18;;;;;;;;;;;12.00;99.90;;;;;;4918496;29;19927;-69
2022/12/19 14:22:45;;;;;;;;;;;11.90;99.90;;;;;;4916756;29;19966;-68
2022/12/19 14:25:12;;;;;;;;;;;11.90;99.90;;;;;;4918411;29;19938;-69
2022/12/19 14:27:40;;;;;;;;;;;11.80;99.90;;;;;;4916762;29;19986;-68
2022/12/19 14:30:08;;;;;;;;;;;11.70;99.90;;;;;;4919411;29;19935;-69
2022/12/19 14:32:37;;;;;;;;;;;11.70;99.90;;;;;;4916537;29;19938;-68
2022/12/19 14:35:08;;;;;;;;;;;11.60;99.90;;;;;;4932655;29;19987;-68
2022/12/19 14:37:38;;;;;;;;;;;11.60;99.90;;;;;;4932882;29;19931;-68
2022/12/19 14:40:07;;;;;;;;;;;11.60;99.90;;;;;;4931854;29;19931;-68
2022/12/19 14:45:31;;;;;;;;;;;11.50;99.90;;;;;;4927013;29;19923;-67
2022/12/19 14:47:58;;;;;;;;;;;11.50;99.90;;;;;;4929500;29;19927;-67
2022/12/19 14:50:31;;;;;;;;;;;11.50;99.90;;;;;;4931505;29;19927;-68
2022/12/19 14:53:07;;;;;;;;;;;11.50;99.90;;;;;;4925054;29;19982;-68
2022/12/19 14:55:35;;;;;;;;;;;11.50;99.90;;;;;;4916311;29;20454;-69
2022/12/19 14:58:07;;;;;;;;;;;11.50;99.90;;;;;;4932021;29;19934;-68
2022/12/19 15:00:42;;;;;;;;;;;11.40;99.90;;;;;;4930999;29;19935;-68
2022/12/19 15:03:09;;;;;;;;;;;11.30;99.90;;;;;;4932138;29;19933;-69
2022/12/19 15:05:37;;;;;;;;;;;11.30;99.90;;;;;;4931185;29;19955;-69
2022/12/19 15:08:09;;;;;;;;;;;11.30;99.90;;;;;;4925198;29;19939;-68
2022/12/19 15:10:35;;;;;;;;;;;11.20;99.90;;;;;;4931260;29;19938;-69
2022/12/19 15:13:18;;;;;;;;;;;11.20;99.90;;;;;;4931622;29;19927;-68
2022/12/19 15:15:50;;;;;;;;;;;11.10;99.90;;;;;;4916283;29;19927;-69
2022/12/19 15:18:19;;;;;;;;;;;11.10;99.90;;;;;;4928997;29;19931;-67
2022/12/19 15:20:47;;;;;;;;;;;11.10;99.90;;;;;;4915711;29;20358;-68
2022/12/19 15:23:14;;;;;;;;;;;11.00;99.90;;;;;;4915263;29;19935;-68
2022/12/19 15:25:41;;;;;;;;;;;11.10;99.90;;;;;;4912683;29;19935;-68
2022/12/19 15:28:11;;;;;;;;;;;11.00;99.90;;;;;;4935668;29;19927;-68
2022/12/19 15:30:39;;;;;;;;;;;11.00;99.90;;;;;;4937619;29;19927;-68
2022/12/19 15:33:09;;;;;;;;;;;10.90;99.90;;;;;;4923877;29;20018;-68
2022/12/19 15:35:35;;;;;;;;;;;10.90;99.90;;;;;;4925116;29;19938;-68
2022/12/19 15:38:04;;;;;;;;;;;10.80;99.90;;;;;;4938361;29;19934;-69
2022/12/19 15:40:30;;;;;;;;;;;10.80;99.90;;;;;;4915253;29;20402;-68
2022/12/19 15:42:58;;;;;;;;;;;10.80;99.90;;;;;;4917680;29;19939;-68
2022/12/19 15:45:25;;;;;;;;;;;10.80;99.90;;;;;;4935788;29;19927;-68
2022/12/19 15:47:52;;;;;;;;;;;10.80;99.90;;;;;;4923036;29;19928;-69
2022/12/19 15:50:20;;;;;;;;;;;10.80;99.90;;;;;;4930423;29;19934;-69
2022/12/19 15:52:47;;;;;;;;;;;10.80;99.90;;;;;;4915624;29;19935;-69
2022/12/19 15:55:16;;;;;;;;;;;11.00;99.90;;;;;;4931576;29;19927;-69
2022/12/19 15:57:46;;;;;;;;;;;11.00;99.90;;;;;;4924116;29;19966;-67
2022/12/19 16:00:17;;;;;;;;;;;11.10;99.90;;;;;;4914181;29;19927;-68
2022/12/19 16:02:43;;;;;;;;;;;11.20;99.90;;;;;;4955943;23;19934;-69
2022/12/19 16:05:10;;;;;;;;;;;11.20;99.90;;;;;;4920377;29;19979;-72
2022/12/19 16:07:37;;;;;;;;;;;11.20;99.90;;;;;;4933259;29;20434;-71
2022/12/19 16:10:03;;;;;;;;;;;11.30;99.90;;;;;;4930684;29;20022;-70
2022/12/19 16:12:34;;;;;;;;;;;11.30;99.90;;;;;;4937818;29;19978;-70
2022/12/19 16:15:02;;;;;;;;;;;11.30;99.90;;;;;;4928429;29;19935;-70
2022/12/19 16:17:30;;;;;;;;;;;11.30;99.90;;;;;;4917857;29;19935;-71
2022/12/19 16:19:57;;;;;;;;;;;11.40;99.90;;;;;;4914776;29;19931;-69
2022/12/19 16:22:25;;;;;;;;;;;11.40;99.90;;;;;;4913923;29;19931;-70
2022/12/19 16:24:52;;;;;;;;;;;11.30;99.90;;;;;;4934744;29;19927;-69
2022/12/19 16:27:21;;;;;;;;;;;11.30;99.90;;;;;;4926861;29;19987;-70
2022/12/19 16:29:50;;;;;;;;;;;11.40;99.90;;;;;;4911999;29;19927;-70
2022/12/19 16:32:17;;;;;;;;;;;11.30;99.90;;;;;;4934176;29;19935;-69
2022/12/19 16:34:44;;;;;;;;;;;11.30;99.90;;;;;;4931165;29;20022;-69
2022/12/19 16:37:11;;;;;;;;;;;11.30;99.90;;;;;;4909425;29;20303;-70
2022/12/19 16:39:37;;;;;;;;;;;11.20;99.90;;;;;;4905237;29;20287;-68
2022/12/19 16:42:05;;;;;;;;;;;11.30;99.90;;;;;;4931458;29;20406;-69
2022/12/19 16:44:33;;;;;;;;;;;11.30;99.90;;;;;;4912204;29;20383;-71
2022/12/19 16:47:01;;;;;;;;;;;11.40;99.90;;;;;;4911611;29;19931;-69
2022/12/19 16:49:29;;;;;;;;;;;11.50;99.90;;;;;;4907275;29;19999;-70
2022/12/19 16:51:56;;;;;;;;;;;11.50;99.90;;;;;;4910041;29;19927;-68
2022/12/19 16:54:23;;;;;;;;;;;11.50;99.90;;;;;;4913355;29;19930;-68
2022/12/19 16:56:51;;;;;;;;;;;11.50;99.90;;;;;;4914814;29;19939;-71
2022/12/19 16:59:19;;;;;;;;;;;11.50;99.90;;;;;;4939767;29;19939;-70
2022/12/19 17:01:46;;;;;;;;;;;11.60;99.90;;;;;;4938987;29;19966;-70
2022/12/19 17:04:16;;;;;;;;;;;11.70;99.90;;;;;;4935173;29;20393;-70
2022/12/19 17:06:43;;;;;;;;;;;11.70;99.90;;;;;;4930870;29;19932;-70
2022/12/19 17:09:13;;;;;;;;;;;11.70;99.90;;;;;;4907461;29;19942;-69
2022/12/19 17:11:40;;;;;;;;;;;11.80;99.90;;;;;;4927693;29;19931;-69
2022/12/19 17:14:10;;;;;;;;;;;11.70;99.90;;;;;;4926755;29;19931;-71
2022/12/19 17:16:37;;;;;;;;;;;11.70;99.90;;;;;;4917612;29;19930;-70
2022/12/19 17:19:04;;;;;;;;;;;11.60;99.90;;;;;;4909182;29;19931;-70
2022/12/19 17:21:32;;;;;;;;;;;11.70;99.90;;;;;;4914640;29;19934;-71
2022/12/19 17:23:59;;;;;;;;;;;11.70;99.90;;;;;;4911535;29;19958;-68
2022/12/19 17:26:25;;;;;;;;;;;11.70;99.90;;;;;;4932900;29;19927;-70
2022/12/19 17:28:54;;;;;;;;;;;11.70;99.90;;;;;;4920061;29;19927;-69
2022/12/19 17:31:23;;;;;;;;;;;11.70;99.90;;;;;;4930344;29;19959;-70
2022/12/19 17:33:50;;;;;;;;;;;11.70;99.90;;;;;;4930299;29;19935;-71
2022/12/19 17:36:17;;;;;;;;;;;11.70;99.90;;;;;;4912177;29;19935;-68
2022/12/19 17:38:45;;;;;;;;;;;11.60;99.90;;;;;;4910452;29;19927;-74
2022/12/19 17:41:14;;;;;;;;;;;11.60;99.90;;;;;;4909837;29;20012;-75
2022/12/19 17:43:41;;;;;;;;;;;11.60;99.90;;;;;;4928268;29;19977;-75
2022/12/19 17:46:11;;;;;;;;;;;11.60;99.90;;;;;;4910086;29;19927;-71
2022/12/19 17:48:38;;;;;;;;;;;11.60;99.90;;;;;;4920631;29;19931;-72
2022/12/19 17:51:05;;;;;;;;;;;11.60;99.90;;;;;;4908064;29;19955;-72
2022/12/19 17:53:31;;;;;;;;;;;11.60;99.90;;;;;;4924887;29;19927;-72
2022/12/19 17:56:00;;;;;;;;;;;11.60;99.90;;;;;;4908705;29;19927;-70
2022/12/19 17:58:29;;;;;;;;;;;11.60;99.90;;;;;;4903428;29;20410;-70
2022/12/19 18:00:56;;;;;;;;;;;11.60;99.90;;;;;;4918448;29;20006;-71
2022/12/19 18:03:24;;;;;;;;;;;11.60;99.90;;;;;;4909636;29;19927;-71
2022/12/19 18:05:51;;;;;;;;;;;11.60;99.90;;;;;;4925641;29;19943;-70
2022/12/19 18:08:23;;;;;;;;;;;11.60;99.90;;;;;;4917719;29;20290;-70
2022/12/19 18:10:50;;;;;;;;;;;11.60;99.90;;;;;;4930102;29;19935;-76
2022/12/19 18:13:19;;;;;;;;;;;11.60;99.90;;;;;;4930076;29;19927;-71
2022/12/19 18:15:46;;;;;;;;;;;11.60;99.90;;;;;;4930219;29;20414;-71
2022/12/19 18:18:13;;;;;;;;;;;11.60;99.90;;;;;;4933306;29;19931;-69
2022/12/19 18:20:40;;;;;;;;;;;11.60;99.90;;;;;;4925956;29;20034;-71
2022/12/19 18:23:10;;;;;;;;;;;11.60;99.90;;;;;;4921345;29;19928;-70
2022/12/19 18:25:37;;;;;;;;;;;11.60;99.90;;;;;;4919607;29;19934;-70
2022/12/19 18:28:04;;;;;;;;;;;11.60;99.90;;;;;;4940293;29;19927;-70
2022/12/19 18:30:32;;;;;;;;;;;11.60;99.90;;;;;;4930965;29;19934;-71
2022/12/19 18:33:01;;;;;;;;;;;11.50;99.90;;;;;;4929889;29;20310;-70
2022/12/19 18:35:29;;;;;;;;;;;11.60;99.90;;;;;;4931100;29;19934;-71
2022/12/19 18:37:58;;;;;;;;;;;11.50;99.90;;;;;;4916706;29;19927;-68
2022/12/19 18:40:25;;;;;;;;;;;11.50;99.90;;;;;;4929606;29;19927;-71
2022/12/19 18:42:52;;;;;;;;;;;11.60;99.90;;;;;;4914110;29;19928;-70
2022/12/19 18:45:20;;;;;;;;;;;11.50;99.90;;;;;;4930249;29;19927;-71